ESGJ/JKG METAR and TAF weather

Enter ICAO airport designator
Station Type Date Time Source
ESGJ METAR 2020/01/21 21:20 UTC NOAA

ESGJ 212120Z 26008KT 220V290 9999 FEW012 04/02 Q1020


Station Type Date Time Source
ESGJ Decoded METAR 2020/01/21 21:20 UTC NOAA

Jonkoping Flygplats, Sweden (ESGJ) 57-46N 014-05E 232M
Jan 21, 2020 - 04:20 PM EST / 2020.01.21 2120 UTC
Wind: from the W (260 degrees) at 9 MPH (8 KT) (direction variable):0
Visibility: greater than 7 mile(s):0
Sky conditions: mostly clear
Temperature: 39 F (4 C)
Dew Point: 35 F (2 C)
Relative Humidity: 86%
Pressure (altimeter): 30.12 in. Hg (1020 hPa)
ob: ESGJ 212120Z 26008KT 220V290 9999 FEW012 04/02 Q1020
cycle: 21

Station Type Date Time Source
ESGJ TAF 2015/05/01 23:06 UTC NOAA

TAF TAF ESGJ 302359Z 3023/0101 CNL

Example: see airport list